Time;durP1;ratioP1;P1;durP2;ratioP2;P2;SDS_P1;SDS_P2;PMS_P1;PMS_P2;Temp;Humidity;BMP_temperature;BMP_pressure;BME280_temperature;BME280_humidity;BME280_pressure;Samples;Min_cycle;Max_cycle;Signal;HPM_P1;HPM_P2
2023/12/02 00:00:09;;;;;;;23.77;11.27;;;;;;;-0.26;67.51;98634.22;4763545;29;20138;-73
2023/12/02 00:02:39;;;;;;;23.90;11.75;;;;;;;-0.28;67.47;98643.56;4766148;29;20050;-70
2023/12/02 00:05:05;;;;;;;28.05;12.30;;;;;;;-0.38;67.95;98638.31;4750639;29;20046;-74
2023/12/02 00:07:30;;;;;;;21.65;10.57;;;;;;;-0.29;67.50;98646.94;4784194;29;20047;-73
2023/12/02 00:09:57;;;;;;;28.00;12.38;;;;;;;-0.22;67.91;98656.44;4782327;29;20584;-74
2023/12/02 00:12:22;;;;;;;27.92;12.18;;;;;;;-0.11;67.74;98666.84;4767353;29;20075;-74
2023/12/02 00:14:48;;;;;;;21.20;11.07;;;;;;;-0.18;67.67;98648.84;4751475;29;20407;-74
2023/12/02 00:17:14;;;;;;;27.15;11.43;;;;;;;-0.16;67.76;98651.44;4750062;29;20440;-74
2023/12/02 00:19:40;;;;;;;26.05;10.93;;;;;;;-0.13;67.45;98660.84;4782218;29;20518;-72
2023/12/02 00:22:06;;;;;;;28.70;12.05;;;;;;;-0.75;67.24;98604.44;4763251;29;20573;-71
2023/12/02 00:24:32;;;;;;;25.35;11.70;;;;;;;-0.49;67.45;98656.03;4750101;29;20044;-71
2023/12/02 00:26:58;;;;;;;25.83;12.35;;;;;;;-0.39;67.48;98661.28;4760149;29;20047;-73
2023/12/02 00:29:24;;;;;;;24.40;11.95;;;;;;;-0.44;67.95;98635.63;4749505;29;20451;-72
2023/12/02 00:31:50;;;;;;;26.20;11.98;;;;;;;-0.11;67.54;98688.16;4765464;29;20237;-74
2023/12/02 00:34:16;;;;;;;25.33;11.98;;;;;;;-0.33;67.56;98646.88;4781388;29;20233;-73
2023/12/02 00:36:49;;;;;;;27.13;11.88;;;;;;;-0.06;67.10;98685.69;4781422;29;20161;-74
2023/12/02 00:39:15;;;;;;;28.30;12.98;;;;;;;-0.29;67.24;98644.38;4782702;29;20047;-73
2023/12/02 00:41:41;;;;;;;23.10;11.75;;;;;;;0.00;67.75;98683.25;4749877;29;20085;-74
2023/12/02 00:44:07;;;;;;;24.75;11.85;;;;;;;-0.01;67.27;98682.38;4752288;29;20047;-72
2023/12/02 00:46:33;;;;;;;22.98;11.88;;;;;;;-0.03;67.23;98684.03;4765694;29;20215;-73
2023/12/02 00:48:59;;;;;;;26.77;11.75;;;;;;;0.01;66.92;98690.06;4766748;29;20471;-73
2023/12/02 00:51:24;;;;;;;25.83;13.10;;;;;;;-0.06;67.34;98673.75;4764489;29;20182;-72
2023/12/02 00:53:50;;;;;;;25.05;11.88;;;;;;;0.02;67.27;98683.25;4764998;29;20047;-72
2023/12/02 00:56:16;;;;;;;24.40;11.98;;;;;;;-0.05;67.00;98670.38;4750544;29;20058;-73
2023/12/02 00:58:42;;;;;;;24.60;12.05;;;;;;;-0.06;67.44;98663.53;4767144;29;20134;-72
2023/12/02 01:01:09;;;;;;;24.63;11.20;;;;;;;0.03;67.12;98667.06;4750245;29;20626;-73
2023/12/02 01:03:35;;;;;;;25.40;11.63;;;;;;;0.13;66.76;98679.16;4764898;29;20067;-72
2023/12/02 01:06:00;;;;;;;22.30;10.98;;;;;;;0.10;67.00;98685.09;4782001;29;20078;-72
2023/12/02 01:08:26;;;;;;;24.50;11.52;;;;;;;0.07;66.50;98692.72;4753908;29;20431;-73
2023/12/02 01:10:52;;;;;;;24.88;11.40;;;;;;;-0.17;66.93;98657.38;4782792;29;20047;-72
2023/12/02 01:13:18;;;;;;;23.65;10.70;;;;;;;-0.16;67.01;98666.78;4769695;29;20047;-73
2023/12/02 01:15:44;;;;;;;25.15;11.60;;;;;;;-0.18;67.18;98663.34;4768375;29;20498;-72
2023/12/02 01:18:09;;;;;;;28.90;11.88;;;;;;;-0.06;67.06;98688.25;4773162;29;20467;-72
2023/12/02 01:20:35;;;;;;;26.90;11.38;;;;;;;-0.02;67.13;98688.31;4786451;29;20047;-72
2023/12/02 01:23:01;;;;;;;25.65;11.65;;;;;;;-0.07;66.30;98700.16;4785321;29;20043;-72
2023/12/02 01:25:27;;;;;;;26.20;11.88;;;;;;;-0.17;66.57;98699.16;4767254;29;20134;-72
2023/12/02 01:27:53;;;;;;;25.42;12.27;;;;;;;-0.17;66.91;98703.44;4754923;29;20416;-74
2023/12/02 01:30:19;;;;;;;24.10;11.63;;;;;;;-0.25;67.10;98690.50;4753438;29;20179;-73
2023/12/02 01:32:45;;;;;;;24.08;12.02;;;;;;;-0.17;66.69;98705.97;4784052;29;20108;-73
2023/12/02 01:35:11;;;;;;;25.40;11.98;;;;;;;-0.32;67.40;98671.63;4782461;29;20407;-73
2023/12/02 01:37:37;;;;;;;30.83;12.57;;;;;;;-0.21;66.73;98686.31;4782641;29;20047;-73
2023/12/02 01:40:03;;;;;;;26.75;12.18;;;;;;;-0.20;66.70;98696.53;4768641;29;20047;-72
2023/12/02 01:42:29;;;;;;;29.55;12.13;;;;;;;-0.31;67.00;98685.28;4784940;29;20051;-72
2023/12/02 01:44:55;;;;;;;27.73;12.00;;;;;;;-0.23;66.95;98690.53;4767464;29;20459;-72
2023/12/02 01:47:21;;;;;;;24.60;12.05;;;;;;;-0.25;66.65;98685.41;4755221;29;20077;-72
2023/12/02 01:49:48;;;;;;;24.63;11.75;;;;;;;-0.18;66.41;98701.69;4756030;29;20047;-71
2023/12/02 01:52:13;;;;;;;28.48;12.50;;;;;;;-0.23;66.64;98700.75;4767543;30;20426;-71
2023/12/02 01:54:39;;;;;;;27.95;12.27;;;;;;;-0.39;66.58;98681.72;4741130;30;20047;-72
2023/12/02 01:57:06;;;;;;;31.35;12.90;;;;;;;-0.27;66.63;98696.41;4782048;29;20161;-71
2023/12/02 01:59:32;;;;;;;28.10;13.00;;;;;;;-0.22;66.62;98707.59;4751941;30;20036;-72
2023/12/02 02:02:01;;;;;;;28.42;12.88;;;;;;;-0.23;66.89;98706.75;4766809;30;20079;-72
2023/12/02 02:04:27;;;;;;;30.38;13.80;;;;;;;-0.18;66.90;98705.09;4756784;30;20086;-70
2023/12/02 02:06:53;;;;;;;31.92;13.27;;;;;;;-0.22;66.58;98694.81;4782630;29;20155;-71
2023/12/02 02:09:18;;;;;;;27.70;12.38;;;;;;;-0.27;66.11;98715.19;4782607;30;20046;-72
2023/12/02 02:11:49;;;;;;;27.73;12.43;;;;;;;-0.26;66.32;98710.94;4767070;29;20126;-72
2023/12/02 02:14:15;;;;;;;28.23;13.07;;;;;;;-0.29;66.63;98721.09;4784121;29;20142;-72
2023/12/02 02:16:41;;;;;;;28.70;12.27;;;;;;;-0.32;66.40;98714.25;4752577;30;20134;-73
2023/12/02 02:19:10;;;;;;;28.40;13.07;;;;;;;-0.34;66.90;98709.13;4766262;30;21660;-71
2023/12/02 02:21:36;;;;;;;29.08;13.18;;;;;;;-0.23;66.59;98722.09;4765311;30;20043;-71
2023/12/02 02:24:02;;;;;;;30.65;12.48;;;;;;;-0.23;67.00;98722.09;4782342;29;20046;-71
2023/12/02 02:26:27;;;;;;;26.77;12.90;;;;;;;-0.21;66.97;98725.50;4768676;29;20055;-72
2023/12/02 02:28:53;;;;;;;26.83;12.98;;;;;;;-0.23;65.97;98729.75;4766385;29;20066;-72
2023/12/02 02:31:19;;;;;;;24.77;12.30;;;;;;;-0.31;66.56;98718.53;4766049;29;20091;-71
2023/12/02 02:33:45;;;;;;;31.67;13.57;;;;;;;-0.19;66.36;98730.66;4752133;29;20233;-72
2023/12/02 02:36:11;;;;;;;25.48;12.52;;;;;;;-0.22;66.28;98721.22;4761726;29;20050;-71
2023/12/02 02:38:37;;;;;;;31.77;13.95;;;;;;;-0.33;66.72;98726.16;4751464;29;20051;-71
2023/12/02 02:41:02;;;;;;;26.20;12.80;;;;;;;-0.27;66.77;98739.88;4769769;29;20039;-72
2023/12/02 02:43:28;;;;;;;29.27;12.48;;;;;;;-0.26;66.57;98739.06;4754039;29;20103;-71
2023/12/02 02:45:54;;;;;;;28.52;12.75;;;;;;;-0.24;66.46;98737.38;4754773;29;20092;-72
2023/12/02 02:48:20;;;;;;;30.65;13.25;;;;;;;-0.19;66.40;98744.28;4782241;29;20460;-72
2023/12/02 02:50:46;;;;;;;32.72;13.70;;;;;;;-0.23;66.64;98734.00;4783229;29;20070;-71
2023/12/02 02:53:11;;;;;;;33.40;13.73;;;;;;;-0.34;66.08;98705.69;4779468;29;20522;-73
2023/12/02 02:55:37;;;;;;;25.67;13.40;;;;;;;-0.17;66.51;98750.31;4767821;29;20054;-73
2023/12/02 02:58:03;;;;;;;33.00;13.52;;;;;;;-0.23;66.24;98747.66;4767579;29;20076;-72
2023/12/02 03:00:29;;;;;;;29.10;13.80;;;;;;;-0.27;66.56;98745.88;4782869;29;20141;-72
2023/12/02 03:02:55;;;;;;;32.53;14.23;;;;;;;-0.26;66.49;98751.84;4782442;29;20050;-71
2023/12/02 03:05:21;;;;;;;30.88;12.88;;;;;;;-0.20;66.59;98757.06;4765411;29;20047;-71
2023/12/02 03:07:47;;;;;;;30.52;13.32;;;;;;;-0.24;65.87;98752.72;4781276;29;20047;-72
2023/12/02 03:10:12;;;;;;;34.03;14.43;;;;;;;-0.21;66.43;98751.06;4783712;29;20570;-72
2023/12/02 03:12:38;;;;;;;29.33;13.65;;;;;;;-0.24;66.36;98745.94;4782687;29;20051;-71
2023/12/02 03:15:04;;;;;;;26.92;13.00;;;;;;;-0.26;65.75;98756.94;4765268;29;20227;-72
2023/12/02 03:17:30;;;;;;;23.88;12.50;;;;;;;-0.34;66.30;98765.38;4780881;29;20444;-72
2023/12/02 03:19:56;;;;;;;28.45;12.55;;;;;;;-0.78;65.66;98706.59;4767233;29;20047;-71
2023/12/02 03:22:22;;;;;;;28.55;13.13;;;;;;;-0.53;66.18;98755.59;4781068;29;20047;-71
2023/12/02 03:24:48;;;;;;;25.73;12.35;;;;;;;-0.49;65.82;98767.63;4766095;29;20047;-72
2023/12/02 03:27:14;;;;;;;27.20;12.82;;;;;;;-0.39;66.16;98777.19;4781163;29;20143;-71
2023/12/02 03:29:40;;;;;;;25.42;12.77;;;;;;;-0.38;66.19;98770.38;4780565;29;20099;-71
2023/12/02 03:32:06;;;;;;;31.25;13.65;;;;;;;-0.36;65.89;98777.25;4754219;29;20380;-71
2023/12/02 03:34:32;;;;;;;26.98;12.90;;;;;;;-0.28;65.69;98779.94;4782629;29;20058;-71
2023/12/02 03:36:58;;;;;;;33.92;13.77;;;;;;;-0.26;66.29;98792.75;4750235;29;20078;-73
2023/12/02 03:39:23;;;;;;;30.10;13.77;;;;;;;-0.22;66.33;98785.16;4765684;29;20055;-71
2023/12/02 03:41:49;;;;;;;35.63;14.93;;;;;;;-0.48;65.36;98760.00;4745815;29;20047;-71
2023/12/02 03:44:15;;;;;;;30.15;13.98;;;;;;;-0.40;66.15;98784.81;4765506;29;20184;-72
2023/12/02 03:46:43;;;;;;;32.55;13.95;;;;;;;-0.46;65.95;98776.22;4765798;29;20139;-70
2023/12/02 03:49:09;;;;;;;31.45;14.85;;;;;;;-0.49;65.87;98776.16;4764865;29;20043;-72
2023/12/02 03:51:35;;;;;;;28.15;14.07;;;;;;;-0.34;65.63;98800.28;4765540;29;20043;-71
2023/12/02 03:54:01;;;;;;;32.65;14.90;;;;;;;-0.47;65.93;98783.84;4779948;29;20158;-71
2023/12/02 03:56:27;;;;;;;32.78;14.38;;;;;;;-0.41;65.99;98808.66;4764212;29;20051;-72
2023/12/02 03:58:53;;;;;;;32.13;14.02;;;;;;;-0.50;65.93;98812.78;4782542;29;20525;-73
2023/12/02 04:01:19;;;;;;;29.20;13.15;;;;;;;-0.55;66.22;98800.75;4738768;29;20534;-70
2023/12/02 04:03:45;;;;;;;32.67;14.85;;;;;;;-0.48;66.28;98818.78;4748828;29;20051;-71
2023/12/02 04:06:14;;;;;;;37.88;15.45;;;;;;;-0.58;66.00;98796.41;4778827;29;20047;-71
2023/12/02 04:08:41;;;;;;;33.28;14.95;;;;;;;-0.53;65.54;98817.81;4764765;29;20039;-71
2023/12/02 04:11:08;;;;;;;33.08;13.90;;;;;;;-0.60;65.68;98808.28;4770531;29;20071;-71
2023/12/02 04:13:35;;;;;;;35.08;15.93;;;;;;;-0.51;65.62;98822.94;4768522;29;20047;-71
2023/12/02 04:16:01;;;;;;;33.60;14.18;;;;;;;-0.62;65.28;98825.28;4779812;29;20043;-72
2023/12/02 04:18:27;;;;;;;33.65;15.68;;;;;;;-0.55;65.59;98834.81;4763303;29;20151;-70
2023/12/02 04:20:53;;;;;;;35.90;14.65;;;;;;;-0.57;66.07;98826.25;4765234;29;20051;-75
2023/12/02 04:23:19;;;;;;;36.63;16.35;;;;;;;-0.42;65.57;98835.03;4766400;29;20047;-72
2023/12/02 04:25:45;;;;;;;33.38;15.63;;;;;;;-0.47;66.07;98837.53;4767061;29;20062;-73
2023/12/02 04:28:11;;;;;;;32.63;15.25;;;;;;;-0.47;65.76;98828.19;4782708;29;20054;-73
2023/12/02 04:30:37;;;;;;;35.17;15.68;;;;;;;-0.34;65.99;98851.41;4753273;29;20588;-73
2023/12/02 04:33:06;;;;;;;35.42;16.45;;;;;;;-0.62;65.53;98818.50;4765193;29;20051;-73
2023/12/02 04:35:35;;;;;;;35.72;15.73;;;;;;;-0.33;66.04;98865.91;4737926;29;20043;-75
2023/12/02 04:38:04;;;;;;;34.65;15.68;;;;;;;-0.49;66.05;98836.63;4769237;29;20463;-73
2023/12/02 04:40:32;;;;;;;31.58;14.90;;;;;;;-0.49;65.78;98827.28;4782480;29;20050;-74
2023/12/02 04:42:58;;;;;;;32.90;15.13;;;;;;;-0.25;65.69;98853.28;4736167;29;20104;-74
2023/12/02 04:45:25;;;;;;;34.47;14.93;;;;;;;-0.28;66.00;98854.09;4766571;29;20055;-73
2023/12/02 04:47:52;;;;;;;36.38;16.45;;;;;;;-0.18;65.55;98879.00;4785804;29;20532;-73
2023/12/02 04:50:18;;;;;;;37.78;16.00;;;;;;;-0.21;66.18;98886.59;4769354;29;20078;-71
2023/12/02 04:52:43;;;;;;;35.50;15.30;;;;;;;-0.45;65.69;98838.41;4786134;29;20115;-73
2023/12/02 04:55:09;;;;;;;29.88;14.73;;;;;;;-0.54;65.38;98823.75;4784269;29;20062;-74
2023/12/02 04:57:36;;;;;;;39.85;14.90;;;;;;;-0.14;65.87;98884.19;4771208;29;20074;-72
2023/12/02 05:00:06;;;;;;;34.70;15.35;;;;;;;-0.21;65.61;98884.06;4772035;29;20058;-72
2023/12/02 05:02:32;;;;;;;34.63;14.55;;;;;;;-0.14;66.11;98884.19;4754201;29;20105;-73
2023/12/02 05:04:57;;;;;;;32.28;15.52;;;;;;;-0.19;65.97;98879.00;4768905;30;20054;-72
2023/12/02 05:07:23;;;;;;;31.77;14.25;;;;;;;-0.20;65.74;98890.03;4767884;29;20114;-72
2023/12/02 05:09:49;;;;;;;34.50;15.35;;;;;;;-0.18;66.41;98885.84;4783603;29;20050;-73
2023/12/02 05:12:15;;;;;;;34.63;16.20;;;;;;;-0.26;65.46;98884.81;4782651;29;20047;-71
2023/12/02 05:14:41;;;;;;;34.85;16.52;;;;;;;-0.28;65.85;98891.56;4767504;29;20096;-73
2023/12/02 05:17:07;;;;;;;29.13;13.80;;;;;;;-0.23;65.91;98895.97;4781468;29;20220;-76
2023/12/02 05:19:36;;;;;;;31.70;14.13;;;;;;;-0.40;65.82;98877.72;4755698;29;20055;-75
2023/12/02 05:22:02;;;;;;;35.72;15.50;;;;;;;-0.26;66.03;98903.59;4772634;29;20047;-76
2023/12/02 05:24:28;;;;;;;34.08;14.80;;;;;;;-0.24;66.12;98895.94;4776863;29;20182;-74
2023/12/02 05:26:54;;;;;;;31.48;13.88;;;;;;;-0.52;65.67;98844.22;4769193;29;20043;-75
2023/12/02 05:29:20;;;;;;;37.70;15.60;;;;;;;-0.32;65.37;98891.50;4784441;29;20048;-74
2023/12/02 05:31:46;;;;;;;32.70;14.43;;;;;;;-0.24;65.23;98909.59;4758494;29;20046;-75
2023/12/02 05:34:12;;;;;;;34.50;15.15;;;;;;;-0.46;65.41;98881.03;4768776;30;20047;-75
2023/12/02 05:36:38;;;;;;;34.75;15.00;;;;;;;-0.29;65.79;98912.88;4758114;29;20552;-72
2023/12/02 05:39:04;;;;;;;37.80;15.85;;;;;;;-0.86;65.24;98829.06;4740973;29;20058;-72
2023/12/02 05:41:31;;;;;;;35.25;15.43;;;;;;;-0.49;65.82;98903.97;4751434;29;20043;-72
2023/12/02 05:43:57;;;;;;;35.88;16.38;;;;;;;-0.63;65.42;98890.88;4766083;29;20508;-71
2023/12/02 05:46:23;;;;;;;35.30;15.68;;;;;;;-0.67;65.18;98893.34;4783360;29;20047;-73
2023/12/02 05:48:49;;;;;;;32.65;14.80;;;;;;;-0.89;65.51;98857.09;4766969;29;20044;-73
2023/12/02 05:51:15;;;;;;;34.53;16.17;;;;;;;-0.67;65.46;98899.31;4756500;29;20046;-72
2023/12/02 05:53:41;;;;;;;34.13;14.82;;;;;;;-1.03;65.85;98854.25;4747269;29;20053;-76
2023/12/02 05:56:08;;;;;;;33.83;15.95;;;;;;;-0.40;65.46;98946.75;4756303;29;20043;-73
2023/12/02 05:58:35;;;;;;;35.67;15.65;;;;;;;-0.42;65.68;98934.75;4769106;29;20051;-73
2023/12/02 06:01:01;;;;;;;33.78;15.48;;;;;;;-0.63;65.60;98908.78;4767970;29;20508;-76
2023/12/02 06:03:27;;;;;;;36.95;15.27;;;;;;;-0.46;65.53;98959.38;4754154;29;20047;-77
2023/12/02 06:05:53;;;;;;;36.42;15.90;;;;;;;-0.69;65.31;98935.88;4766561;29;20058;-73
2023/12/02 06:08:20;;;;;;;35.42;14.70;;;;;;;-0.66;65.32;98953.84;4768285;29;20168;-74
2023/12/02 06:10:46;;;;;;;29.90;14.18;;;;;;;-0.84;65.75;98924.47;4767378;29;20046;-74
2023/12/02 06:13:12;;;;;;;39.35;15.25;;;;;;;-0.87;65.80;98931.22;4783477;29;20043;-75
2023/12/02 06:15:39;;;;;;;31.63;14.25;;;;;;;-0.84;65.49;98950.00;4755295;29;20058;-73
2023/12/02 06:18:05;;;;;;;35.05;15.48;;;;;;;-0.92;65.42;98952.41;4740042;29;20063;-75
2023/12/02 06:20:31;;;;;;;35.33;16.08;;;;;;;-0.95;65.71;98959.13;4747268;29;20066;-76
2023/12/02 06:22:57;;;;;;;36.42;16.02;;;;;;;-1.03;65.47;98950.41;4754415;29;20051;-73
2023/12/02 06:25:23;;;;;;;32.92;15.45;;;;;;;-1.24;65.63;98913.31;4781180;29;20043;-75
2023/12/02 06:27:48;;;;;;;36.53;16.80;;;;;;;-0.73;65.57;98997.97;4766921;29;20058;-77
2023/12/02 06:30:18;;;;;;;38.03;16.08;;;;;;;-0.80;65.74;98989.28;4767158;29;20047;-77
2023/12/02 06:32:44;;;;;;;35.40;15.57;;;;;;;-0.86;66.10;98987.44;4737273;29;20114;-77
2023/12/02 06:35:12;;;;;;;37.38;16.73;;;;;;;-0.92;66.30;98971.97;4782680;29;20046;-74
2023/12/02 06:37:37;;;;;;;38.40;15.45;;;;;;;-0.76;66.10;98991.06;4754345;29;20047;-74
2023/12/02 06:40:07;;;;;;;37.88;16.77;;;;;;;-0.89;66.13;98961.84;4756510;30;20408;-76
2023/12/02 06:42:34;;;;;;;42.28;15.88;;;;;;;-0.66;65.77;98998.16;4765302;30;20131;-76
2023/12/02 06:45:00;;;;;;;33.60;14.88;;;;;;;-0.55;65.90;99000.09;4774804;30;20051;-74
2023/12/02 06:47:26;;;;;;;38.17;15.60;;;;;;;-1.37;65.88;98864.53;4788958;29;20046;-75
2023/12/02 06:49:52;;;;;;;32.47;15.63;;;;;;;-0.74;65.11;98970.69;4783284;29;20041;-77
2023/12/02 06:52:18;;;;;;;35.10;15.80;;;;;;;-0.72;65.74;98981.81;4766945;29;20097;-75
2023/12/02 06:54:44;;;;;;;38.92;15.80;;;;;;;-0.66;65.51;99003.25;4780814;29;20077;-74
2023/12/02 06:57:10;;;;;;;36.70;16.60;;;;;;;-0.84;65.30;98972.16;4783878;29;20073;-78
2023/12/02 06:59:36;;;;;;;38.00;15.90;;;;;;;-0.97;65.34;98953.13;4769970;29;20113;-75
2023/12/02 07:02:02;;;;;;;33.33;15.68;;;;;;;-1.14;65.67;98943.38;4755204;29;20070;-74
2023/12/02 07:04:28;;;;;;;37.30;16.85;;;;;;;-0.71;66.11;99009.94;4766658;29;20061;-76
2023/12/02 07:06:54;;;;;;;32.47;15.23;;;;;;;-0.79;65.89;99002.09;4769309;29;20609;-77
2023/12/02 07:09:20;;;;;;;38.20;16.15;;;;;;;-0.86;65.61;98995.09;4782224;29;20644;-78
2023/12/02 07:11:46;;;;;;;34.97;16.38;;;;;;;-0.82;65.02;99006.28;4771637;29;20035;-77
2023/12/02 07:14:12;;;;;;;37.08;16.13;;;;;;;-0.65;65.24;99038.22;4784227;29;20081;-78
2023/12/02 07:16:38;;;;;;;36.22;16.83;;;;;;;-0.67;65.67;99024.53;4772225;29;20435;-76
2023/12/02 07:19:04;;;;;;;38.75;16.70;;;;;;;-0.63;65.68;99034.00;4788216;29;20047;-77
2023/12/02 07:21:30;;;;;;;32.03;15.23;;;;;;;-0.63;65.60;99039.13;4786907;29;20042;-77
2023/12/02 07:23:57;;;;;;;35.17;16.63;;;;;;;-0.88;65.21;98985.69;4759959;29;20039;-78
2023/12/02 07:26:23;;;;;;;43.08;16.98;;;;;;;-0.61;65.74;99042.56;4774028;30;20058;-76
2023/12/02 07:28:49;;;;;;;39.67;17.10;;;;;;;-0.50;65.64;99044.50;4790838;29;20080;-77
2023/12/02 07:31:16;;;;;;;37.20;16.70;;;;;;;-0.44;65.96;99031.88;4787571;29;20129;-75
2023/12/02 07:33:42;;;;;;;38.92;16.00;;;;;;;-0.44;65.34;99013.97;4756950;29;20642;-76
2023/12/02 07:36:12;;;;;;;37.47;16.27;;;;;;;-0.13;65.50;99047.91;4756351;29;20043;-76
2023/12/02 07:38:40;;;;;;;34.25;16.10;;;;;;;-0.22;64.85;99027.25;4783675;29;20521;-74
2023/12/02 07:41:09;;;;;;;35.03;16.77;;;;;;;0.11;65.33;99070.59;4766715;30;20055;-77
2023/12/02 07:43:35;;;;;;;35.15;16.38;;;;;;;0.05;65.07;99044.03;4767000;29;20054;-73
2023/12/02 07:46:01;;;;;;;39.78;18.58;;;;;;;-0.24;65.17;98993.09;4780939;29;20053;-74
2023/12/02 07:48:27;;;;;;;47.38;19.83;;;;;;;0.11;65.03;99052.69;4761798;29;20116;-75
2023/12/02 07:50:53;;;;;;;44.17;16.92;;;;;;;0.10;65.06;99060.34;4764976;29;20515;-71
2023/12/02 07:53:19;;;;;;;36.45;16.67;;;;;;;0.09;64.86;99069.72;4738548;29;20506;-74
2023/12/02 07:55:45;;;;;;;40.60;18.10;;;;;;;0.23;64.83;99110.06;4779425;29;20136;-73
2023/12/02 07:58:11;;;;;;;38.55;16.50;;;;;;;0.15;65.07;99097.13;4779410;29;20051;-70
2023/12/02 08:00:37;;;;;;;36.95;17.65;;;;;;;0.10;65.44;99083.38;4750375;29;20056;-71
2023/12/02 08:03:03;;;;;;;41.00;18.13;;;;;;;0.28;65.39;99129.84;4781446;29;20047;-71
2023/12/02 08:05:30;;;;;;;41.08;17.27;;;;;;;0.17;65.19;99109.97;4763382;29;20051;-73
2023/12/02 08:07:56;;;;;;;38.00;17.48;;;;;;;-0.01;65.33;99078.88;4754284;29;20409;-72
2023/12/02 08:10:22;;;;;;;46.78;18.45;;;;;;;-0.03;64.99;99066.91;4745846;29;20137;-74
2023/12/02 08:12:49;;;;;;;38.53;16.80;;;;;;;0.60;65.39;99134.75;4764844;29;20261;-74
2023/12/02 08:15:14;;;;;;;40.33;17.30;;;;;;;0.60;65.42;99101.47;4750757;29;20063;-73
2023/12/02 08:17:40;;;;;;;35.50;16.77;;;;;;;0.95;65.37;99133.75;4767377;29;20105;-73
2023/12/02 08:20:08;;;;;;;35.47;15.77;;;;;;;0.70;65.08;99081.19;4748216;29;20039;-73
2023/12/02 08:22:34;;;;;;;32.10;15.32;;;;;;;1.01;64.77;99117.63;4764411;29;20051;-72
2023/12/02 08:25:00;;;;;;;33.20;14.88;;;;;;;1.10;64.71;99128.03;4780500;29;20042;-72
2023/12/02 08:27:26;;;;;;;31.20;15.02;;;;;;;0.96;64.15;99103.88;4780391;29;20541;-72
2023/12/02 08:29:52;;;;;;;32.22;14.30;;;;;;;1.07;64.45;99101.50;4767260;30;20050;-71
2023/12/02 08:32:18;;;;;;;29.92;15.63;;;;;;;1.83;65.25;99106.19;4765003;29;20190;-73
2023/12/02 08:34:44;;;;;;;29.25;14.02;;;;;;;3.15;65.80;99092.44;4770053;29;20269;-73
2023/12/02 08:37:13;;;;;;;30.35;15.20;;;;;;;3.69;64.62;99117.75;4744606;29;20426;-75
2023/12/02 08:39:39;;;;;;;29.27;14.05;;;;;;;3.05;64.15;99052.03;4755771;29;20042;-73
2023/12/02 08:42:05;;;;;;;27.77;14.43;;;;;;;3.71;64.32;99080.03;4753260;29;20051;-73
2023/12/02 08:44:31;;;;;;;26.33;14.10;;;;;;;5.43;65.70;99068.66;4750023;29;20047;-74
2023/12/02 08:47:00;;;;;;;24.58;12.77;;;;;;;7.18;64.74;99069.03;4779991;29;20139;-73
2023/12/02 08:49:27;;;;;;;24.05;12.85;;;;;;;8.63;64.28;99074.59;4779626;29;20134;-75
2023/12/02 08:51:53;;;;;;;23.33;13.02;;;;;;;10.02;63.05;99112.34;4768077;29;20052;-74
2023/12/02 08:54:22;;;;;;;26.40;15.23;;;;;;;10.33;60.82;99101.38;4739347;29;20065;-73
2023/12/02 08:56:48;;;;;;;27.15;14.45;;;;;;;10.66;60.07;99047.00;4791456;29;20503;-74
2023/12/02 08:59:14;;;;;;;25.35;14.30;;;;;;;11.58;58.45;99100.50;4760329;29;20044;-72
2023/12/02 09:01:44;;;;;;;24.48;13.98;;;;;;;12.45;57.81;99109.56;4768157;30;20043;-75
2023/12/02 09:04:11;;;;;;;21.83;13.87;;;;;;;12.46;56.45;99012.13;4770752;29;20054;-72
2023/12/02 09:06:37;;;;;;;23.65;14.00;;;;;;;13.05;54.88;99040.84;4742372;29;20408;-71
2023/12/02 09:09:03;;;;;;;28.35;15.38;;;;;;;13.32;53.07;99093.16;4765353;29;20055;-72
2023/12/02 09:11:29;;;;;;;25.23;14.90;;;;;;;11.93;50.81;99083.09;4768080;29;20687;-75
2023/12/02 09:13:55;;;;;;;28.02;14.82;;;;;;;10.35;50.57;99071.00;4755288;29;20072;-75
2023/12/02 09:16:29;;;;;;;26.92;15.85;;;;;;;9.39;50.22;99134.97;4767550;29;20055;-73
2023/12/02 09:18:55;;;;;;;29.58;16.13;;;;;;;8.07;50.47;99103.66;4735794;29;20047;-73
2023/12/02 09:21:21;;;;;;;27.45;15.13;;;;;;;7.47;50.90;99146.47;4780167;29;20051;-74
2023/12/02 09:23:48;;;;;;;25.38;14.45;;;;;;;6.06;50.91;99048.00;4782112;29;20162;-72
2023/12/02 09:26:34;;;;;;;27.85;14.88;;;;;;;5.95;51.13;99170.22;4780321;29;20043;-73
2023/12/02 09:29:00;;;;;;;34.25;16.17;;;;;;;5.17;51.56;99140.03;4765040;29;20539;-74
2023/12/02 09:31:27;;;;;;;29.38;15.05;;;;;;;4.83;51.92;99176.88;4750717;29;20154;-74
2023/12/02 09:34:05;;;;;;;25.60;13.57;;;;;;;4.43;52.16;99179.22;4771473;29;20158;-75
2023/12/02 09:36:35;;;;;;;27.08;14.93;;;;;;;4.09;53.10;99182.41;4763539;29;20082;-73
2023/12/02 09:39:21;;;;;;;27.77;14.13;;;;;;;3.64;53.39;99170.91;4773057;29;20481;-71
2023/12/02 09:41:56;;;;;;;29.83;13.95;;;;;;;3.37;53.67;99191.22;4744485;29;20117;-71
2023/12/02 09:44:33;;;;;;;25.25;13.05;;;;;;;3.07;54.10;99184.91;4770125;29;20039;-72
2023/12/02 09:47:04;;;;;;;26.30;12.45;;;;;;;2.92;54.39;99193.31;4775527;29;20485;-73
2023/12/02 09:49:42;;;;;;;29.13;13.90;;;;;;;2.75;54.99;99185.38;4762550;29;20058;-74
2023/12/02 09:52:43;;;;;;;26.27;12.68;;;;;;;2.58;55.20;99190.28;4788172;29;20138;-71
2023/12/02 09:55:21;;;;;;;26.58;12.88;;;;;;;2.85;56.04;99189.78;4761109;29;20150;-71
2023/12/02 09:57:56;;;;;;;25.55;11.77;;;;;;;3.07;55.70;99189.19;4758378;29;20047;-71
2023/12/02 10:01:10;;;;;;;24.10;12.80;;;;;;;2.90;56.17;99159.00;4768522;29;20048;-74
2023/12/02 10:03:53;;;;;;;27.67;13.40;;;;;;;2.71;55.72;99138.22;4710400;29;20188;-75
2023/12/02 10:06:45;;;;;;;28.63;13.55;;;;;;;3.02;56.21;99191.69;4792474;29;20188;-74
2023/12/02 10:09:11;;;;;;;;;;;;;;;2.95;56.69;99183.06;4769652;29;20044;-76
2023/12/02 10:11:59;;;;;;;24.58;12.82;;;;;;;2.90;56.60;99187.28;4784065;29;20445;-76
2023/12/02 10:14:26;;;;;;;28.75;12.48;;;;;;;2.50;56.54;99149.06;4790421;29;20123;-70
2023/12/02 10:16:53;;;;;;;25.30;12.13;;;;;;;2.49;55.79;99195.31;4774494;29;20047;-70
2023/12/02 10:19:34;;;;;;;26.50;12.13;;;;;;;2.02;56.25;99165.50;4772849;29;20106;-75
2023/12/02 10:22:02;;;;;;;26.95;12.27;;;;;;;1.99;56.68;99183.44;4792264;29;20530;-71
2023/12/02 10:24:57;;;;;;;27.77;12.63;;;;;;;1.97;57.01;99192.81;4756119;29;20051;-75
2023/12/02 10:27:27;;;;;;;27.02;12.50;;;;;;;1.82;56.70;99186.56;4769421;29;20043;-72
2023/12/02 10:30:06;;;;;;;22.60;11.93;;;;;;;2.01;57.49;99207.38;4789089;29;20049;-75
2023/12/02 10:33:15;;;;;;;24.48;11.77;;;;;;;2.01;57.35;99210.84;4799508;29;20379;-75
2023/12/02 10:35:43;;;;;;;25.85;13.00;;;;;;;2.08;57.49;99220.38;4792036;29;20039;-71
2023/12/02 10:38:18;;;;;;;25.67;12.65;;;;;;;2.00;57.69;99221.06;4770639;29;20043;-71
2023/12/02 10:41:12;;;;;;;27.85;12.45;;;;;;;1.84;57.60;99228.50;4755018;29;20054;-71
2023/12/02 10:43:41;;;;;;;28.98;13.05;;;;;;;1.54;57.70;99205.75;4779426;29;20055;-71
2023/12/02 10:46:08;;;;;;;23.65;11.85;;;;;;;1.43;57.74;99215.81;4785050;29;20138;-71
2023/12/02 10:48:39;;;;;;;25.52;12.32;;;;;;;1.18;57.64;99200.84;4765991;29;20384;-72
2023/12/02 10:51:07;;;;;;;25.08;12.15;;;;;;;1.27;58.45;99233.47;4755861;29;20084;-71
2023/12/02 10:53:36;;;;;;;25.80;11.88;;;;;;;1.20;58.44;99227.38;4784989;29;20046;-72
2023/12/02 10:56:10;;;;;;;21.25;11.40;;;;;;;1.32;58.70;99246.38;4767398;29;20076;-71
2023/12/02 10:58:39;;;;;;;23.88;10.88;;;;;;;1.22;58.88;99226.50;4765431;29;20519;-71
2023/12/02 11:01:08;;;;;;;22.13;10.82;;;;;;;1.15;58.58;99228.09;4787353;29;20049;-76
2023/12/02 11:03:50;;;;;;;23.63;11.00;;;;;;;1.14;58.47;99252.88;4766572;29;20039;-74
2023/12/02 11:06:50;;;;;;;21.38;10.55;;;;;;;0.89;58.90;99254.03;4765360;29;20134;-71
2023/12/02 11:09:43;;;;;;;21.60;10.52;;;;;;;0.67;58.71;99275.75;4736719;29;20044;-70
2023/12/02 11:12:22;;;;;;;25.60;10.65;;;;;;;0.51;59.01;99256.59;4757200;29;20109;-71
2023/12/02 11:14:53;;;;;;;20.55;10.30;;;;;;;0.45;58.86;99277.81;4765012;29;20070;-70
2023/12/02 11:17:31;;;;;;;19.52;9.95;;;;;;;0.36;59.10;99275.03;4742306;29;20112;-72
2023/12/02 11:20:25;;;;;;;22.17;10.10;;;;;;;0.32;59.49;99283.50;4781938;29;20051;-72
2023/12/02 11:23:21;;;;;;;21.55;11.57;;;;;;;0.24;59.91;99279.03;4782590;29;20078;-70